Terminal Aerodrome Forecast
Issued by NWS

Home | Current Version | Previous Version | Text Only | Print | Product List | Glossary On
Versions: 1 2 3 4 5 6 7 8 9 10 11 12
000
FTUS42 TJSJ 040500 RRA
TAFJPS
TAF
TJPS 040539Z 0406/0506 05004KT P6SM VCSH FEW030 SCT070
     FM041330 09009KT P6SM FEW030
      TEMPO 0415/0419 14012G18KT FEW030 SCT050
     FM042200 06005KT P6SM FEW030=

USA.gov is the U.S. government's official web portal to all federal, state and local government web resources and services.